Time;durP1;ratioP1;P1;durP2;ratioP2;P2;SDS_P1;SDS_P2;PMS_P1;PMS_P2;Temp;Humidity;BMP_temperature;BMP_pressure;BME280_temperature;BME280_humidity;BME280_pressure;Samples;Min_cycle;Max_cycle;Signal;HPM_P1;HPM_P2
2023/01/19 00:00:24;;;;;;;10.13;3.53;;;;;;;;;;5095715;28;20520;-25
2023/01/19 00:02:50;;;;;;;16.67;3.90;;;;;;;;;;5095583;28;20027;-26
2023/01/19 00:05:17;;;;;;;7.00;2.90;;;;;;;;;;5076403;28;20125;-25
2023/01/19 00:07:43;;;;;;;7.95;3.83;;;;;;;;;;5075252;28;20028;-28
2023/01/19 00:10:10;;;;;;;8.15;3.10;;;;;;;;;;5075339;28;20025;-26
2023/01/19 00:12:36;;;;;;;10.38;3.20;;;;;;;;;;5075495;28;20020;-25
2023/01/19 00:15:02;;;;;;;9.25;2.85;;;;;;;;;;5074735;28;20093;-24
2023/01/19 00:17:28;;;;;;;10.30;3.05;;;;;;;;;;5075524;28;20020;-25
2023/01/19 00:19:54;;;;;;;9.35;3.15;;;;;;;;;;5075039;28;20040;-26
2023/01/19 00:22:20;;;;;;;7.15;3.67;;;;;;;;;;5075017;28;20052;-25
2023/01/19 00:24:47;;;;;;;8.35;3.13;;;;;;;;;;5075288;28;20406;-24
2023/01/19 00:27:13;;;;;;;12.48;2.88;;;;;;;;;;5075229;28;20028;-27
2023/01/19 00:29:39;;;;;;;8.13;3.60;;;;;;;;;;5074781;28;20039;-26
2023/01/19 00:32:05;;;;;;;8.55;3.13;;;;;;;;;;5074914;28;20020;-26
2023/01/19 00:34:41;;;;;;;10.40;2.70;;;;;;;;;;5075087;28;20055;-28
2023/01/19 00:37:07;;;;;;;7.15;2.70;;;;;;;;;;5074799;28;20032;-26
2023/01/19 00:39:33;;;;;;;7.38;3.25;;;;;;;;;;5075088;28;20366;-25
2023/01/19 00:44:44;;;;;;;8.40;2.97;;;;;;;;;;5074840;28;20044;-28
2023/01/19 00:47:11;;;;;;;9.27;3.50;;;;;;;;;;5074940;28;20090;-27
2023/01/19 00:49:37;;;;;;;14.38;2.83;;;;;;;;;;5056927;28;20036;-25
2023/01/19 00:52:03;;;;;;;13.75;3.58;;;;;;;;;;5074618;28;20032;-24
2023/01/19 00:54:29;;;;;;;9.73;3.05;;;;;;;;;;5074619;28;20363;-25
2023/01/19 00:56:55;;;;;;;12.02;3.70;;;;;;;;;;5074842;28;20020;-26
2023/01/19 00:59:21;;;;;;;15.52;3.50;;;;;;;;;;5074482;28;20036;-25
2023/01/19 01:01:47;;;;;;;12.60;3.08;;;;;;;;;;5074815;28;20033;-29
2023/01/19 01:04:14;;;;;;;9.00;2.97;;;;;;;;;;5084673;28;20047;-27
2023/01/19 01:06:40;;;;;;;10.57;2.67;;;;;;;;;;5094729;28;20043;-25
2023/01/19 01:09:10;;;;;;;8.55;2.25;;;;;;;;;;5094620;28;20035;-26
2023/01/19 01:11:40;;;;;;;10.18;2.72;;;;;;;;;;5094659;28;20030;-24
2023/01/19 01:14:06;;;;;;;8.18;3.20;;;;;;;;;;5094700;28;20035;-25
2023/01/19 01:16:32;;;;;;;9.35;2.50;;;;;;;;;;5094683;28;20046;-25
2023/01/19 01:18:59;;;;;;;4.43;2.80;;;;;;;;;;5094498;28;20028;-26
2023/01/19 01:21:25;;;;;;;9.65;2.90;;;;;;;;;;5094608;28;20050;-28
2023/01/19 01:23:51;;;;;;;9.75;3.38;;;;;;;;;;5094517;28;20047;-25
2023/01/19 01:26:17;;;;;;;7.47;2.72;;;;;;;;;;5095877;28;20098;-29
2023/01/19 01:28:43;;;;;;;3.92;2.38;;;;;;;;;;5098564;28;20020;-27
2023/01/19 01:31:09;;;;;;;7.00;3.25;;;;;;;;;;5098672;28;20395;-27
2023/01/19 01:33:35;;;;;;;12.50;3.78;;;;;;;;;;5098803;28;20028;-25
2023/01/19 01:36:02;;;;;;;7.85;3.08;;;;;;;;;;5098852;28;20055;-25
2023/01/19 01:38:28;;;;;;;10.68;2.65;;;;;;;;;;5098499;28;20363;-26
2023/01/19 01:40:54;;;;;;;10.60;2.63;;;;;;;;;;5098376;28;20043;-25
2023/01/19 01:43:20;;;;;;;5.80;2.70;;;;;;;;;;5098430;28;20128;-28
2023/01/19 01:45:46;;;;;;;12.02;2.47;;;;;;;;;;5098357;28;20044;-25
2023/01/19 01:48:18;;;;;;;6.65;3.08;;;;;;;;;;5098204;28;20477;-32
2023/01/19 01:53:33;;;;;;;6.47;2.58;;;;;;;;;;5098856;28;20465;-25
2023/01/19 01:56:02;;;;;;;6.38;2.45;;;;;;;;;;5098463;28;20051;-26
2023/01/19 01:58:28;;;;;;;3.55;2.53;;;;;;;;;;5098079;28;20076;-24
2023/01/19 02:03:39;;;;;;;4.35;2.53;;;;;;;;;;5097857;28;20113;-26
2023/01/19 02:06:06;;;;;;;4.53;2.53;;;;;;;;;;5098329;28;20041;-25
2023/01/19 02:14:12;;;;;;;5.95;2.33;;;;;;;;;;5098186;28;20039;-26
2023/01/19 02:16:38;;;;;;;6.10;3.17;;;;;;;;;;5098047;28;20103;-26
2023/01/19 02:19:06;;;;;;;7.03;2.10;;;;;;;;;;5097695;28;20121;-24
2023/01/19 02:21:41;;;;;;;4.40;2.05;;;;;;;;;;5097664;28;20036;-25
2023/01/19 02:24:09;;;;;;;9.60;3.28;;;;;;;;;;5097557;28;20374;-24
2023/01/19 02:26:41;;;;;;;5.95;2.40;;;;;;;;;;5097486;28;20040;-24
2023/01/19 02:29:09;;;;;;;4.47;2.38;;;;;;;;;;5097468;28;20032;-27
2023/01/19 02:31:37;;;;;;;5.65;2.78;;;;;;;;;;5097403;28;20012;-25
2023/01/19 02:34:05;;;;;;;5.97;2.47;;;;;;;;;;5097305;28;20028;-26
2023/01/19 02:36:39;;;;;;;5.07;2.60;;;;;;;;;;5097026;28;20099;-24
2023/01/19 02:39:07;;;;;;;5.78;2.58;;;;;;;;;;5097368;28;20036;-25
2023/01/19 02:41:38;;;;;;;8.40;2.90;;;;;;;;;;5097352;28;20350;-25
2023/01/19 02:44:06;;;;;;;10.13;2.53;;;;;;;;;;5097489;28;20105;-24
2023/01/19 02:46:33;;;;;;;7.88;2.60;;;;;;;;;;5097087;28;20363;-26
2023/01/19 02:49:02;;;;;;;10.90;2.08;;;;;;;;;;5097208;28;20024;-25
2023/01/19 02:51:28;;;;;;;5.38;2.25;;;;;;;;;;5096996;28;20465;-26
2023/01/19 02:54:05;;;;;;;4.97;2.60;;;;;;;;;;5097022;28;20024;-26
2023/01/19 02:56:41;;;;;;;5.40;3.05;;;;;;;;;;5097039;28;20442;-26
2023/01/19 02:59:26;;;;;;;7.88;2.42;;;;;;;;;;5097026;28;20036;-24
2023/01/19 03:01:56;;;;;;;7.13;2.55;;;;;;;;;;5079085;28;20028;-25
2023/01/19 03:04:30;;;;;;;6.80;2.78;;;;;;;;;;5085378;28;20056;-26
2023/01/19 03:07:23;;;;;;;3.70;2.65;;;;;;;;;;5076498;28;20075;-26
2023/01/19 03:09:57;;;;;;;7.35;2.53;;;;;;;;;;5076775;28;20116;-27
2023/01/19 03:12:23;;;;;;;5.90;2.30;;;;;;;;;;5076388;28;20036;-25
2023/01/19 03:14:52;;;;;;;3.95;2.67;;;;;;;;;;5076355;28;20037;-25
2023/01/19 03:17:19;;;;;;;8.65;3.55;;;;;;;;;;5076378;28;20043;-34
2023/01/19 03:19:48;;;;;;;5.13;3.03;;;;;;;;;;5076154;28;20348;-26
2023/01/19 03:22:19;;;;;;;7.43;2.70;;;;;;;;;;5076124;28;20033;-29
2023/01/19 03:24:47;;;;;;;9.05;3.22;;;;;;;;;;5076250;28;20035;-24
2023/01/19 03:27:29;;;;;;;5.57;2.63;;;;;;;;;;5076441;28;20020;-26
2023/01/19 03:30:01;;;;;;;3.58;2.30;;;;;;;;;;5076914;28;20040;-28
2023/01/19 03:32:32;;;;;;;7.18;2.60;;;;;;;;;;5076339;28;20032;-29
2023/01/19 03:35:00;;;;;;;8.48;2.95;;;;;;;;;;5058285;28;20477;-28
2023/01/19 03:37:29;;;;;;;3.10;2.25;;;;;;;;;;5075822;28;20103;-27
2023/01/19 03:39:55;;;;;;;5.65;2.55;;;;;;;;;;5075932;28;20075;-25
2023/01/19 03:42:24;;;;;;;5.47;2.20;;;;;;;;;;5075840;28;20028;-26
2023/01/19 03:44:54;;;;;;;5.10;2.50;;;;;;;;;;5075806;28;20082;-24
2023/01/19 03:47:21;;;;;;;4.68;2.88;;;;;;;;;;5076218;28;20016;-25
2023/01/19 03:49:49;;;;;;;5.57;2.58;;;;;;;;;;5074823;28;20102;-27
2023/01/19 03:52:16;;;;;;;5.25;2.78;;;;;;;;;;5075687;28;20027;-25
2023/01/19 03:54:43;;;;;;;4.40;2.40;;;;;;;;;;5075618;28;20443;-26
2023/01/19 03:57:12;;;;;;;5.47;2.58;;;;;;;;;;5075833;28;20024;-25
2023/01/19 03:59:40;;;;;;;5.45;2.50;;;;;;;;;;5075791;28;20030;-29
2023/01/19 04:02:06;;;;;;;4.60;2.30;;;;;;;;;;5075477;28;20175;-27
2023/01/19 04:04:33;;;;;;;3.83;2.20;;;;;;;;;;5066911;28;20079;-27
2023/01/19 04:07:03;;;;;;;4.68;2.30;;;;;;;;;;5075318;28;20028;-28
2023/01/19 04:09:29;;;;;;;3.95;1.88;;;;;;;;;;5075170;28;20056;-27
2023/01/19 04:11:56;;;;;;;3.95;2.05;;;;;;;;;;5075551;28;20032;-27
2023/01/19 04:14:23;;;;;;;5.22;2.85;;;;;;;;;;5075195;28;20025;-25
2023/01/19 04:16:50;;;;;;;5.68;2.22;;;;;;;;;;5075220;28;20036;-28
2023/01/19 04:19:17;;;;;;;3.75;2.20;;;;;;;;;;5075025;28;20115;-28
2023/01/19 04:21:44;;;;;;;5.85;2.22;;;;;;;;;;5075153;28;20032;-31
2023/01/19 04:24:11;;;;;;;6.13;3.30;;;;;;;;;;5075348;28;20040;-28
2023/01/19 04:26:38;;;;;;;4.55;2.92;;;;;;;;;;5074947;28;20040;-26
2023/01/19 04:29:04;;;;;;;6.22;3.53;;;;;;;;;;5074879;28;20060;-29
2023/01/19 04:31:31;;;;;;;2.28;2.03;;;;;;;;;;5075241;28;20478;-28
2023/01/19 04:33:58;;;;;;;2.85;2.03;;;;;;;;;;5074705;28;20040;-25
2023/01/19 04:36:26;;;;;;;6.20;2.58;;;;;;;;;;5074796;28;20086;-32
2023/01/19 04:38:53;;;;;;;3.30;2.13;;;;;;;;;;5074771;28;20020;-27
2023/01/19 04:41:20;;;;;;;3.80;2.10;;;;;;;;;;5074812;28;20045;-27
2023/01/19 04:43:47;;;;;;;4.70;2.30;;;;;;;;;;5074786;28;20028;-25
2023/01/19 04:46:14;;;;;;;5.82;2.08;;;;;;;;;;5073762;28;20028;-26
2023/01/19 04:48:41;;;;;;;5.63;2.58;;;;;;;;;;5074576;28;20039;-25
2023/01/19 04:51:08;;;;;;;2.95;2.10;;;;;;;;;;5073697;28;20028;-24
2023/01/19 04:53:35;;;;;;;4.65;2.17;;;;;;;;;;5074613;28;20027;-26
2023/01/19 04:56:02;;;;;;;4.97;2.00;;;;;;;;;;5074604;28;20024;-26
2023/01/19 04:58:28;;;;;;;6.93;3.05;;;;;;;;;;5074607;28;20030;-25
2023/01/19 05:00:55;;;;;;;5.82;2.28;;;;;;;;;;5074720;28;20355;-25
2023/01/19 05:03:22;;;;;;;3.55;2.13;;;;;;;;;;5074267;28;20906;-25
2023/01/19 05:05:48;;;;;;;3.67;1.95;;;;;;;;;;5074742;28;20031;-30
2023/01/19 05:08:15;;;;;;;3.88;2.17;;;;;;;;;;5074643;28;20058;-26
2023/01/19 05:10:42;;;;;;;3.33;2.15;;;;;;;;;;5074356;28;20154;-25
2023/01/19 05:13:08;;;;;;;3.25;2.35;;;;;;;;;;5074249;28;20031;-26
2023/01/19 05:15:35;;;;;;;5.85;2.40;;;;;;;;;;5074158;28;20103;-28
2023/01/19 05:18:05;;;;;;;3.78;2.20;;;;;;;;;;5074041;28;20025;-25
2023/01/19 05:20:31;;;;;;;3.72;2.28;;;;;;;;;;5074380;28;20037;-27
2023/01/19 05:22:57;;;;;;;4.18;2.42;;;;;;;;;;5074076;28;20028;-25
2023/01/19 05:25:24;;;;;;;7.88;2.03;;;;;;;;;;5074580;28;20040;-25
2023/01/19 05:27:50;;;;;;;5.25;2.35;;;;;;;;;;5074652;28;20024;-25
2023/01/19 05:30:16;;;;;;;4.57;1.88;;;;;;;;;;5074043;28;20025;-30
2023/01/19 05:32:43;;;;;;;6.53;2.05;;;;;;;;;;5073799;28;20017;-27
2023/01/19 05:35:09;;;;;;;5.70;1.90;;;;;;;;;;5074046;28;20028;-29
2023/01/19 05:37:35;;;;;;;4.25;1.85;;;;;;;;;;5073786;28;20029;-26
2023/01/19 05:40:01;;;;;;;2.38;1.52;;;;;;;;;;5074075;28;20024;-25
2023/01/19 05:42:28;;;;;;;3.85;1.70;;;;;;;;;;5073804;28;20035;-31
2023/01/19 05:44:54;;;;;;;5.75;2.05;;;;;;;;;;5073747;28;20454;-26
2023/01/19 05:47:20;;;;;;;3.33;1.92;;;;;;;;;;5073921;28;20028;-26
2023/01/19 05:49:46;;;;;;;7.65;3.00;;;;;;;;;;5073615;28;20111;-29
2023/01/19 05:52:12;;;;;;;6.43;2.22;;;;;;;;;;5073966;28;20020;-27
2023/01/19 05:54:39;;;;;;;6.63;2.65;;;;;;;;;;5073823;28;20043;-28
2023/01/19 05:57:06;;;;;;;6.78;2.03;;;;;;;;;;5073887;28;20317;-26
2023/01/19 05:59:32;;;;;;;6.15;2.78;;;;;;;;;;5055907;28;20509;-34
2023/01/19 06:01:58;;;;;;;3.95;1.75;;;;;;;;;;5073938;28;20098;-28
2023/01/19 06:04:24;;;;;;;6.55;2.38;;;;;;;;;;5072999;28;20476;-27
2023/01/19 06:06:51;;;;;;;2.42;1.70;;;;;;;;;;5073292;28;20043;-28
2023/01/19 06:09:17;;;;;;;2.97;1.48;;;;;;;;;;5055700;28;20051;-24
2023/01/19 06:11:44;;;;;;;4.28;2.08;;;;;;;;;;5055697;28;20097;-28
2023/01/19 06:14:11;;;;;;;7.90;1.88;;;;;;;;;;5077375;28;20040;-28
2023/01/19 06:19:19;;;;;;;2.53;1.85;;;;;;;;;;5260621;22;20052;-31
2023/01/19 06:21:48;;;;;;;5.68;1.85;;;;;;;;;;5057109;28;20029;-33
2023/01/19 06:24:15;;;;;;;7.40;2.45;;;;;;;;;;5056890;28;20124;-32
2023/01/19 06:26:42;;;;;;;6.95;1.83;;;;;;;;;;5057490;28;20029;-32
2023/01/19 06:29:10;;;;;;;5.13;1.85;;;;;;;;;;5056791;28;20372;-32
2023/01/19 06:31:36;;;;;;;7.60;2.10;;;;;;;;;;5056726;28;20035;-31
2023/01/19 06:34:02;;;;;;;4.93;1.80;;;;;;;;;;5057056;28;20067;-31
2023/01/19 06:36:29;;;;;;;9.75;2.47;;;;;;;;;;5057369;28;20051;-31
2023/01/19 06:38:55;;;;;;;7.65;1.77;;;;;;;;;;5057301;28;20029;-32
2023/01/19 06:41:21;;;;;;;8.50;1.85;;;;;;;;;;5056986;28;20408;-31
2023/01/19 06:43:47;;;;;;;4.78;1.98;;;;;;;;;;5056631;28;20116;-32
2023/01/19 06:46:13;;;;;;;7.63;1.98;;;;;;;;;;5056880;28;20393;-30
2023/01/19 06:48:40;;;;;;;4.90;2.08;;;;;;;;;;5056774;28;20086;-32
2023/01/19 06:51:06;;;;;;;3.28;1.98;;;;;;;;;;5056587;28;20025;-31
2023/01/19 06:53:32;;;;;;;4.20;1.70;;;;;;;;;;5057331;28;20377;-30
2023/01/19 06:56:02;;;;;;;2.58;1.73;;;;;;;;;;5056560;28;20025;-30
2023/01/19 06:58:28;;;;;;;8.50;2.38;;;;;;;;;;5056743;28;20090;-32
2023/01/19 07:00:55;;;;;;;6.32;1.98;;;;;;;;;;5056399;28;20075;-30
2023/01/19 07:03:21;;;;;;;2.55;1.52;;;;;;;;;;5056471;28;20060;-31
2023/01/19 07:05:51;;;;;;;3.60;1.95;;;;;;;;;;5056602;28;20021;-32
2023/01/19 07:08:18;;;;;;;6.85;1.83;;;;;;;;;;5056186;28;20040;-32
2023/01/19 07:10:44;;;;;;;6.35;1.80;;;;;;;;;;5056202;28;20356;-32
2023/01/19 07:13:10;;;;;;;11.35;3.50;;;;;;;;;;5056146;28;20021;-32
2023/01/19 07:15:36;;;;;;;8.27;2.67;;;;;;;;;;5055907;28;20059;-32
2023/01/19 07:18:06;;;;;;;2.35;1.50;;;;;;;;;;5038006;28;20057;-31
2023/01/19 07:20:33;;;;;;;4.40;2.15;;;;;;;;;;5038978;28;20380;-31
2023/01/19 07:23:00;;;;;;;10.38;2.55;;;;;;;;;;5055365;28;20033;-31
2023/01/19 07:25:26;;;;;;;4.72;1.50;;;;;;;;;;5055512;28;20461;-30
2023/01/19 07:27:56;;;;;;;6.60;2.72;;;;;;;;;;5055963;28;20041;-31
2023/01/19 07:30:22;;;;;;;3.85;1.90;;;;;;;;;;5055895;28;20021;-31
2023/01/19 07:32:48;;;;;;;8.68;2.40;;;;;;;;;;5055516;28;20078;-31
2023/01/19 07:35:14;;;;;;;7.63;2.28;;;;;;;;;;5055430;28;20071;-31
2023/01/19 07:37:40;;;;;;;3.72;1.90;;;;;;;;;;5055727;28;20129;-30
2023/01/19 07:40:07;;;;;;;11.80;2.28;;;;;;;;;;5055379;28;20029;-32
2023/01/19 07:42:33;;;;;;;6.43;2.40;;;;;;;;;;5055670;28;20098;-33
2023/01/19 07:44:59;;;;;;;7.38;3.47;;;;;;;;;;5055285;28;20486;-31
2023/01/19 07:47:26;;;;;;;6.38;1.90;;;;;;;;;;5055204;28;20119;-32
2023/01/19 07:49:52;;;;;;;6.68;2.30;;;;;;;;;;5055314;28;20428;-32
2023/01/19 07:52:18;;;;;;;4.13;1.70;;;;;;;;;;5055151;28;20017;-31
2023/01/19 07:54:44;;;;;;;3.20;1.70;;;;;;;;;;5055418;28;20451;-32
2023/01/19 07:57:10;;;;;;;2.80;1.83;;;;;;;;;;5055144;28;20025;-31
2023/01/19 07:59:37;;;;;;;5.15;1.65;;;;;;;;;;5037583;28;20440;-33
2023/01/19 08:02:04;;;;;;;8.70;2.47;;;;;;;;;;5055720;28;20028;-31
2023/01/19 08:04:30;;;;;;;12.73;2.88;;;;;;;;;;5055166;28;20040;-32
2023/01/19 08:06:56;;;;;;;14.27;2.50;;;;;;;;;;5055090;28;20028;-31
2023/01/19 08:09:23;;;;;;;6.80;2.25;;;;;;;;;;5055209;28;20102;-31
2023/01/19 08:11:49;;;;;;;14.13;2.60;;;;;;;;;;5055126;28;20040;-31
2023/01/19 08:14:15;;;;;;;16.75;2.97;;;;;;;;;;5054894;28;20037;-31
2023/01/19 08:16:41;;;;;;;8.90;1.83;;;;;;;;;;5054957;28;20021;-31
2023/01/19 08:19:07;;;;;;;6.50;1.98;;;;;;;;;;5055009;28;20434;-32
2023/01/19 08:21:34;;;;;;;18.50;2.60;;;;;;;;;;5054969;28;20033;-31
2023/01/19 08:24:01;;;;;;;10.65;2.35;;;;;;;;;;5055277;28;20021;-31
2023/01/19 08:26:29;;;;;;;6.45;1.77;;;;;;;;;;5054844;28;20044;-32
2023/01/19 08:28:56;;;;;;;4.90;2.10;;;;;;;;;;5054421;28;20040;-33
2023/01/19 08:31:23;;;;;;;10.68;2.50;;;;;;;;;;5054414;28;20352;-32
2023/01/19 08:33:49;;;;;;;6.20;2.22;;;;;;;;;;5054263;28;20525;-31
2023/01/19 08:36:16;;;;;;;13.77;2.45;;;;;;;;;;5053995;28;20103;-31
2023/01/19 08:38:44;;;;;;;15.82;4.03;;;;;;;;;;5054380;28;20033;-32
2023/01/19 08:41:10;;;;;;;13.35;3.00;;;;;;;;;;5054747;28;20037;-31
2023/01/19 08:43:37;;;;;;;6.93;2.88;;;;;;;;;;5037692;28;20036;-34
2023/01/19 08:46:03;;;;;;;10.60;1.75;;;;;;;;;;5054418;28;20032;-32
2023/01/19 08:48:29;;;;;;;8.38;1.60;;;;;;;;;;5054367;28;20413;-33
2023/01/19 08:50:56;;;;;;;9.95;2.63;;;;;;;;;;5054326;28;20435;-32
2023/01/19 08:53:22;;;;;;;12.35;2.45;;;;;;;;;;5054353;28;20036;-31
2023/01/19 08:55:48;;;;;;;9.18;2.90;;;;;;;;;;5055080;28;20043;-32
2023/01/19 08:58:15;;;;;;;4.53;2.40;;;;;;;;;;5054421;28;20440;-32
2023/01/19 09:00:41;;;;;;;23.23;3.10;;;;;;;;;;5054360;28;20044;-32
2023/01/19 09:03:09;;;;;;;14.32;2.78;;;;;;;;;;5054601;28;20041;-31
2023/01/19 09:05:37;;;;;;;10.55;3.83;;;;;;;;;;5054509;28;20029;-33
2023/01/19 09:08:08;;;;;;;9.65;2.25;;;;;;;;;;5053977;28;20469;-32
2023/01/19 09:10:36;;;;;;;25.55;4.47;;;;;;;;;;5054477;28;20021;-32
2023/01/19 09:13:03;;;;;;;27.38;3.60;;;;;;;;;;5054330;28;20089;-31
2023/01/19 09:15:32;;;;;;;15.40;3.35;;;;;;;;;;5054458;28;20084;-31
2023/01/19 09:17:59;;;;;;;21.92;3.85;;;;;;;;;;5054060;28;20053;-32
2023/01/19 09:20:25;;;;;;;18.38;4.15;;;;;;;;;;5054408;28;20032;-30
2023/01/19 09:22:51;;;;;;;9.70;3.08;;;;;;;;;;5054173;28;20029;-31
2023/01/19 09:25:18;;;;;;;6.82;2.60;;;;;;;;;;5054097;28;20033;-31
2023/01/19 09:27:44;;;;;;;8.73;2.47;;;;;;;;;;5036297;28;20025;-31
2023/01/19 09:30:12;;;;;;;11.02;3.70;;;;;;;;;;5053900;28;20021;-31
2023/01/19 09:32:38;;;;;;;8.57;2.72;;;;;;;;;;5054079;28;20036;-31
2023/01/19 09:35:04;;;;;;;14.20;4.05;;;;;;;;;;5054057;28;20021;-32
2023/01/19 09:37:30;;;;;;;13.93;3.10;;;;;;;;;;5053684;28;20021;-30
2023/01/19 09:39:56;;;;;;;9.68;3.03;;;;;;;;;;5053790;28;20394;-31
2023/01/19 09:42:28;;;;;;;16.38;3.47;;;;;;;;;;5053854;28;20051;-31
2023/01/19 09:44:54;;;;;;;25.63;5.15;;;;;;;;;;5053712;28;20025;-32
2023/01/19 09:47:23;;;;;;;17.00;4.05;;;;;;;;;;5055315;28;20036;-31
2023/01/19 09:49:53;;;;;;;13.15;3.90;;;;;;;;;;5057589;28;20052;-31
2023/01/19 09:52:20;;;;;;;14.82;3.15;;;;;;;;;;5057677;28;20028;-32
2023/01/19 09:54:54;;;;;;;11.95;3.90;;;;;;;;;;5057611;28;20039;-31
2023/01/19 09:57:21;;;;;;;9.05;3.03;;;;;;;;;;5057404;28;20025;-31
2023/01/19 09:59:50;;;;;;;18.90;5.32;;;;;;;;;;5057523;28;20090;-30
2023/01/19 10:02:19;;;;;;;16.13;3.72;;;;;;;;;;5057558;28;20077;-31
2023/01/19 10:05:05;;;;;;;21.15;4.60;;;;;;;;;;5057909;28;20139;-31
2023/01/19 10:07:42;;;;;;;4.07;2.40;;;;;;;;;;5057417;28;20114;-31
2023/01/19 10:10:12;;;;;;;15.70;3.22;;;;;;;;;;5057690;28;20020;-30
2023/01/19 10:12:43;;;;;;;15.95;2.88;;;;;;;;;;5058068;28;20024;-32
2023/01/19 10:15:27;;;;;;;5.30;1.80;;;;;;;;;;5057827;28;20143;-31
2023/01/19 10:18:12;;;;;;;3.53;1.48;;;;;;;;;;5057405;28;20076;-32
2023/01/19 10:20:43;;;;;;;7.38;2.00;;;;;;;;;;5057685;28;20029;-32
2023/01/19 10:23:29;;;;;;;11.77;2.28;;;;;;;;;;5057464;28;20029;-32
2023/01/19 10:25:55;;;;;;;8.70;2.20;;;;;;;;;;5057229;28;20017;-32
2023/01/19 10:28:23;;;;;;;7.65;2.20;;;;;;;;;;5039422;28;20036;-32
2023/01/19 10:30:50;;;;;;;8.27;3.30;;;;;;;;;;5039403;28;20355;-33
2023/01/19 10:33:17;;;;;;;18.15;3.88;;;;;;;;;;5056804;28;20021;-32
2023/01/19 10:35:43;;;;;;;9.85;3.30;;;;;;;;;;5039234;28;20474;-30
2023/01/19 10:38:12;;;;;;;11.98;2.92;;;;;;;;;;5056945;28;20467;-32
2023/01/19 10:40:39;;;;;;;6.68;3.10;;;;;;;;;;5057083;28;20025;-30
2023/01/19 10:43:40;;;;;;;7.25;2.38;;;;;;;;;;5056873;28;20033;-31
2023/01/19 10:46:18;;;;;;;11.55;3.60;;;;;;;;;;4976816;28;20042;-32
2023/01/19 10:48:47;;;;;;;10.85;2.80;;;;;;;;;;5047061;28;20043;-32
2023/01/19 10:51:13;;;;;;;18.27;3.45;;;;;;;;;;5056440;28;20444;-30
2023/01/19 10:53:40;;;;;;;13.27;3.30;;;;;;;;;;5056842;28;20021;-31
2023/01/19 10:56:12;;;;;;;14.43;3.92;;;;;;;;;;5056295;28;20039;-31
2023/01/19 10:58:39;;;;;;;;;;;;;;;;;;5038847;28;20032;-31
2023/01/19 11:01:13;;;;;;;17.63;3.58;;;;;;;;;;5056383;28;19905;-32
2023/01/19 11:03:39;;;;;;;15.70;3.40;;;;;;;;;;5056080;28;20029;-33
2023/01/19 11:06:31;;;;;;;16.15;3.83;;;;;;;;;;5056134;28;20029;-31
2023/01/19 11:09:30;;;;;;;19.85;4.35;;;;;;;;;;5052534;28;20037;-32
2023/01/19 11:11:56;;;;;;;14.95;3.92;;;;;;;;;;5012782;28;20470;-31
2023/01/19 11:14:23;;;;;;;13.63;4.60;;;;;;;;;;5055983;28;20436;-31
2023/01/19 11:16:55;;;;;;;13.35;3.67;;;;;;;;;;5056083;28;20094;-31
2023/01/19 11:19:24;;;;;;;21.27;4.30;;;;;;;;;;5055630;28;20110;-31
2023/01/19 11:21:51;;;;;;;20.75;4.18;;;;;;;;;;5055996;28;20455;-31
2023/01/19 11:24:17;;;;;;;18.88;4.20;;;;;;;;;;5055852;28;20377;-34
2023/01/19 11:26:47;;;;;;;22.35;5.00;;;;;;;;;;5038278;28;20025;-32
2023/01/19 11:29:18;;;;;;;12.93;4.03;;;;;;;;;;5055622;28;20029;-32
2023/01/19 11:31:44;;;;;;;12.98;3.40;;;;;;;;;;5056080;28;20048;-32
2023/01/19 11:34:24;;;;;;;10.98;3.20;;;;;;;;;;5055881;28;20040;-33
2023/01/19 11:37:17;;;;;;;19.75;4.15;;;;;;;;;;5055573;28;20112;-33
2023/01/19 11:39:53;;;;;;;14.32;4.22;;;;;;;;;;5025391;28;20095;-31
2023/01/19 11:42:19;;;;;;;13.05;3.53;;;;;;;;;;5055693;28;20033;-31
2023/01/19 11:45:06;;;;;;;9.43;3.30;;;;;;;;;;5055685;28;20032;-32
2023/01/19 11:47:43;;;;;;;7.82;2.42;;;;;;;;;;5024759;28;20041;-31
2023/01/19 11:50:36;;;;;;;10.88;2.60;;;;;;;;;;5021570;28;20021;-30
2023/01/19 11:53:16;;;;;;;11.43;3.60;;;;;;;;;;5051798;28;20430;-31
2023/01/19 11:55:56;;;;;;;10.50;3.38;;;;;;;;;;5038306;28;20474;-32
2023/01/19 11:58:23;;;;;;;8.68;2.90;;;;;;;;;;5055311;28;20448;-31
2023/01/19 12:00:53;;;;;;;7.80;2.05;;;;;;;;;;5055362;28;20086;-31
2023/01/19 12:03:30;;;;;;;9.13;2.40;;;;;;;;;;5055366;28;20055;-32
2023/01/19 12:06:01;;;;;;;8.40;2.17;;;;;;;;;;5055074;28;20039;-31
2023/01/19 12:08:32;;;;;;;13.63;3.20;;;;;;;;;;5055279;28;20091;-31
2023/01/19 12:10:59;;;;;;;8.15;2.50;;;;;;;;;;5054682;28;20030;-30
2023/01/19 12:13:27;;;;;;;9.60;2.50;;;;;;;;;;5055470;28;20029;-31
2023/01/19 12:16:04;;;;;;;10.50;2.92;;;;;;;;;;5037384;28;20498;-31
2023/01/19 12:18:34;;;;;;;9.70;3.42;;;;;;;;;;5054718;28;20053;-31
2023/01/19 12:21:00;;;;;;;13.25;3.10;;;;;;;;;;5055008;28;20029;-30
2023/01/19 12:23:45;;;;;;;10.65;2.55;;;;;;;;;;5054855;28;20071;-32
2023/01/19 12:26:26;;;;;;;13.75;3.15;;;;;;;;;;5054940;28;20025;-32
2023/01/19 12:28:56;;;;;;;7.90;2.50;;;;;;;;;;5054557;28;20036;-30
2023/01/19 12:31:23;;;;;;;9.55;2.80;;;;;;;;;;5054671;28;20072;-33
2023/01/19 12:33:49;;;;;;;9.43;2.95;;;;;;;;;;5054986;28;20021;-33
2023/01/19 12:36:16;;;;;;;11.73;2.42;;;;;;;;;;5054923;28;20023;-31
2023/01/19 12:38:42;;;;;;;10.23;2.47;;;;;;;;;;5054555;28;20099;-31
2023/01/19 12:41:22;;;;;;;8.45;2.58;;;;;;;;;;5054423;28;20460;-32
2023/01/19 12:44:08;;;;;;;11.33;3.53;;;;;;;;;;5036932;28;20057;-32
2023/01/19 12:46:35;;;;;;;11.38;3.55;;;;;;;;;;5054979;28;20343;-31
2023/01/19 12:49:05;;;;;;;24.52;6.43;;;;;;;;;;5054559;28;20496;-30
2023/01/19 12:51:31;;;;;;;11.38;2.95;;;;;;;;;;5054486;28;20021;-32
2023/01/19 12:53:58;;;;;;;10.18;3.80;;;;;;;;;;5054464;28;20070;-31
2023/01/19 12:56:33;;;;;;;18.23;4.55;;;;;;;;;;5055168;28;20124;-31
2023/01/19 12:59:00;;;;;;;15.45;3.67;;;;;;;;;;5054404;28;20108;-32
2023/01/19 13:01:26;;;;;;;11.75;3.50;;;;;;;;;;5054409;28;20025;-32
2023/01/19 13:03:58;;;;;;;13.77;3.30;;;;;;;;;;5055034;28;20052;-31
2023/01/19 13:07:04;;;;;;;20.27;6.30;;;;;;;;;;5054298;28;20111;-29
2023/01/19 13:09:38;;;;;;;15.55;4.93;;;;;;;;;;4973879;28;20038;-31
2023/01/19 13:12:13;;;;;;;12.15;4.13;;;;;;;;;;4974451;28;20019;-31
2023/01/19 13:14:40;;;;;;;20.00;3.97;;;;;;;;;;5021659;28;20171;-31
2023/01/19 13:17:27;;;;;;;17.50;3.80;;;;;;;;;;5054296;28;20359;-32
2023/01/19 13:20:00;;;;;;;18.63;4.13;;;;;;;;;;5053788;28;20055;-33
2023/01/19 13:22:44;;;;;;;15.82;2.80;;;;;;;;;;5057785;28;20040;-32
2023/01/19 13:25:12;;;;;;;22.17;3.53;;;;;;;;;;5058415;28;20025;-32
2023/01/19 13:27:38;;;;;;;28.15;6.32;;;;;;;;;;5058134;28;20035;-32
2023/01/19 13:30:17;;;;;;;13.13;3.13;;;;;;;;;;5057991;28;20083;-33
2023/01/19 13:32:43;;;;;;;10.82;3.55;;;;;;;;;;5040499;28;20048;-31
2023/01/19 13:35:17;;;;;;;6.85;2.53;;;;;;;;;;5058083;28;20463;-31
2023/01/19 13:37:44;;;;;;;11.45;2.80;;;;;;;;;;5057851;28;20044;-31
2023/01/19 13:40:23;;;;;;;7.88;2.97;;;;;;;;;;5057976;28;20079;-31
2023/01/19 13:42:51;;;;;;;9.25;2.97;;;;;;;;;;5058360;28;20040;-32
2023/01/19 13:45:38;;;;;;;5.00;3.25;;;;;;;;;;5057904;28;20043;-31
2023/01/19 13:48:06;;;;;;;13.93;3.60;;;;;;;;;;5057604;28;20032;-32
2023/01/19 13:50:33;;;;;;;24.25;4.53;;;;;;;;;;5057716;28;20064;-31
2023/01/19 13:53:01;;;;;;;7.88;2.75;;;;;;;;;;5058024;28;20035;-36
2023/01/19 13:55:28;;;;;;;21.15;4.20;;;;;;;;;;5058117;28;20017;-32
2023/01/19 13:57:55;;;;;;;11.95;3.40;;;;;;;;;;5057460;28;20025;-31
2023/01/19 14:00:22;;;;;;;20.70;3.38;;;;;;;;;;5040437;28;20031;-31
2023/01/19 14:02:55;;;;;;;24.65;3.88;;;;;;;;;;5057751;28;20048;-31
2023/01/19 14:05:21;;;;;;;20.77;4.50;;;;;;;;;;5057786;28;20041;-32
2023/01/19 14:07:47;;;;;;;19.75;3.95;;;;;;;;;;5057471;28;20035;-33
2023/01/19 14:10:15;;;;;;;20.80;4.25;;;;;;;;;;5057416;28;20065;-31
2023/01/19 14:12:42;;;;;;;21.52;3.92;;;;;;;;;;5057769;28;20029;-32
2023/01/19 14:15:12;;;;;;;10.23;3.70;;;;;;;;;;5057255;28;20025;-30
2023/01/19 14:17:39;;;;;;;13.90;3.90;;;;;;;;;;5057592;28;20155;-31
2023/01/19 14:20:06;;;;;;;14.65;3.30;;;;;;;;;;5057212;28;20131;-32
2023/01/19 14:22:39;;;;;;;12.80;3.53;;;;;;;;;;5040205;28;20111;-31
2023/01/19 14:25:24;;;;;;;22.58;5.43;;;;;;;;;;5039765;28;20031;-32
2023/01/19 14:27:50;;;;;;;11.50;3.08;;;;;;;;;;5057133;28;20123;-32
2023/01/19 14:30:23;;;;;;;14.63;3.40;;;;;;;;;;5039950;28;20025;-32
2023/01/19 14:32:50;;;;;;;6.35;2.00;;;;;;;;;;5056840;28;20036;-32
2023/01/19 14:35:25;;;;;;;19.30;3.50;;;;;;;;;;5057654;28;20102;-31
2023/01/19 14:37:51;;;;;;;5.32;2.58;;;;;;;;;;5056909;28;20164;-32
2023/01/19 14:40:19;;;;;;;8.15;2.97;;;;;;;;;;5056995;28;20456;-32
2023/01/19 14:42:56;;;;;;;15.50;4.22;;;;;;;;;;5057255;28;20456;-32
2023/01/19 14:45:28;;;;;;;4.85;2.53;;;;;;;;;;5057137;28;20364;-32
2023/01/19 14:48:02;;;;;;;19.92;2.75;;;;;;;;;;5056830;28;20543;-32
2023/01/19 14:50:36;;;;;;;6.07;2.30;;;;;;;;;;5056844;28;20464;-32
2023/01/19 14:53:04;;;;;;;9.77;2.35;;;;;;;;;;5057022;28;20028;-31
2023/01/19 14:55:33;;;;;;;9.63;2.80;;;;;;;;;;5056907;28;20048;-30
2023/01/19 14:58:00;;;;;;;8.85;2.95;;;;;;;;;;5056887;28;20363;-30
2023/01/19 15:00:26;;;;;;;17.40;3.83;;;;;;;;;;5056914;28;20096;-30
2023/01/19 15:02:52;;;;;;;19.05;3.88;;;;;;;;;;5056864;28;20033;-31
2023/01/19 15:05:37;;;;;;;32.17;5.10;;;;;;;;;;5006718;28;20048;-32